createdAt,value
2023-05-14T00:00:29.562Z,23.73
2023-05-14T00:02:56.539Z,30.45
2023-05-14T00:05:23.203Z,23.45
2023-05-14T00:07:49.686Z,28.10
2023-05-14T00:10:17.636Z,29.38
2023-05-14T00:12:44.179Z,27.02
2023-05-14T00:15:10.728Z,29.70
2023-05-14T00:17:37.471Z,28.08
2023-05-14T00:20:07.146Z,32.25
2023-05-14T00:22:33.939Z,29.58
2023-05-14T00:25:00.673Z,26.88
2023-05-14T00:27:27.278Z,27.98
2023-05-14T00:29:53.770Z,28.58
2023-05-14T00:32:20.324Z,29.55
2023-05-14T00:34:46.868Z,30.85
2023-05-14T00:37:13.412Z,24.98
2023-05-14T00:39:39.869Z,23.38
2023-05-14T00:42:06.821Z,23.48
2023-05-14T00:44:33.590Z,27.33
2023-05-14T00:47:00.675Z,27.98
2023-05-14T00:49:28.578Z,30.20
2023-05-14T00:51:55.952Z,29.85
2023-05-14T00:54:22.791Z,28.85
2023-05-14T00:56:50.518Z,29.05
2023-05-14T00:59:17.019Z,25.70
2023-05-14T01:01:43.609Z,25.30
2023-05-14T01:04:10.586Z,28.58
2023-05-14T01:06:40.603Z,29.15
2023-05-14T01:09:16.076Z,29.27
2023-05-14T01:11:47.888Z,31.25
2023-05-14T01:14:21.328Z,25.42
2023-05-14T01:16:49.556Z,28.67
2023-05-14T01:19:26.981Z,31.58
2023-05-14T01:21:53.571Z,27.30
2023-05-14T01:24:20.130Z,26.20
2023-05-14T01:26:46.700Z,23.80
2023-05-14T01:29:13.133Z,22.63
2023-05-14T01:31:40.630Z,30.77
2023-05-14T01:34:08.646Z,31.38
2023-05-14T01:36:35.300Z,24.20
2023-05-14T01:39:02.142Z,26.98
2023-05-14T01:41:29.567Z,28.70
2023-05-14T01:43:57.332Z,28.95
2023-05-14T01:46:25.307Z,24.60
2023-05-14T01:48:51.839Z,25.55
2023-05-14T01:51:18.464Z,25.15
2023-05-14T01:53:44.891Z,26.23
2023-05-14T01:56:11.439Z,30.60
2023-05-14T01:58:38.082Z,27.35
2023-05-14T02:01:04.818Z,27.65
2023-05-14T02:03:31.527Z,27.05
2023-05-14T02:05:58.494Z,26.23
2023-05-14T02:08:27.213Z,26.75
2023-05-14T02:10:53.773Z,25.17
2023-05-14T02:13:20.216Z,27.65
2023-05-14T02:15:46.821Z,27.10
2023-05-14T02:18:13.567Z,28.40
2023-05-14T02:20:40.169Z,27.13
2023-05-14T02:23:06.924Z,26.65
2023-05-14T02:25:33.528Z,23.75
2023-05-14T02:27:59.971Z,28.42
2023-05-14T02:30:26.586Z,26.08
2023-05-14T02:32:53.181Z,27.42
2023-05-14T02:35:20.752Z,24.58
2023-05-14T02:37:47.253Z,23.67
2023-05-14T02:40:13.809Z,27.98
2023-05-14T02:42:40.445Z,25.20
2023-05-14T02:45:07.205Z,25.95
2023-05-14T02:47:36.110Z,23.88
2023-05-14T02:50:06.256Z,28.42
2023-05-14T02:52:32.891Z,24.27
2023-05-14T02:54:59.479Z,23.17
2023-05-14T02:57:26.096Z,32.08
2023-05-14T02:59:52.655Z,24.80
2023-05-14T03:02:19.833Z,28.75
2023-05-14T03:04:46.781Z,27.98
2023-05-14T03:07:13.696Z,32.65
2023-05-14T03:09:40.251Z,25.95
2023-05-14T03:12:08.148Z,24.67
2023-05-14T03:14:34.648Z,26.02
2023-05-14T03:17:01.321Z,26.98
2023-05-14T03:19:28.074Z,30.00
2023-05-14T03:21:54.523Z,24.35
2023-05-14T03:24:21.082Z,25.80
2023-05-14T03:26:47.551Z,29.38
2023-05-14T03:29:18.037Z,29.13
2023-05-14T03:31:45.209Z,25.95
2023-05-14T03:34:11.750Z,26.20
2023-05-14T03:36:40.030Z,30.55
2023-05-14T03:39:09.705Z,26.85
2023-05-14T03:41:36.501Z,25.77
2023-05-14T03:44:03.131Z,30.23
2023-05-14T03:46:29.672Z,24.67
2023-05-14T03:48:56.471Z,25.35
2023-05-14T03:51:23.108Z,31.20
2023-05-14T03:53:49.620Z,27.73
2023-05-14T03:56:16.165Z,25.48
2023-05-14T03:58:42.777Z,25.17
2023-05-14T04:01:09.294Z,26.75
2023-05-14T04:03:36.007Z,24.38
2023-05-14T04:06:02.909Z,22.30
2023-05-14T04:08:29.357Z,27.20
2023-05-14T04:10:56.440Z,26.33
2023-05-14T04:13:22.994Z,23.65
2023-05-14T04:15:49.609Z,27.25
2023-05-14T04:18:17.256Z,24.08
2023-05-14T04:20:43.879Z,24.65
2023-05-14T04:23:10.419Z,23.48
2023-05-14T04:25:37.090Z,22.20
2023-05-14T04:28:03.513Z,19.58
2023-05-14T04:30:30.337Z,23.00
2023-05-14T04:32:57.024Z,19.33
2023-05-14T04:35:24.932Z,19.40
2023-05-14T04:37:51.669Z,25.05
2023-05-14T04:40:19.003Z,24.05
2023-05-14T04:42:45.543Z,22.52
2023-05-14T04:45:13.565Z,21.65
2023-05-14T04:47:40.099Z,23.23
2023-05-14T04:50:07.038Z,19.90
2023-05-14T04:52:33.518Z,20.65
2023-05-14T04:55:00.191Z,19.70
2023-05-14T04:57:26.877Z,19.88
2023-05-14T04:59:53.439Z,18.38
2023-05-14T05:02:19.917Z,18.20
2023-05-14T05:04:47.204Z,25.15
2023-05-14T05:07:14.558Z,26.60
2023-05-14T05:09:41.084Z,25.23
2023-05-14T05:12:07.683Z,22.67
2023-05-14T05:14:34.204Z,18.88
2023-05-14T05:17:00.616Z,21.80
2023-05-14T05:19:39.726Z,22.17
2023-05-14T05:22:09.608Z,26.83
2023-05-14T05:24:36.152Z,23.92
2023-05-14T05:27:02.763Z,22.95
2023-05-14T05:29:29.196Z,18.98
2023-05-14T05:31:55.942Z,18.73
2023-05-14T05:34:22.419Z,19.73
2023-05-14T05:36:48.940Z,19.45
2023-05-14T05:39:15.416Z,19.17
2023-05-14T05:41:43.308Z,20.10
2023-05-14T05:44:10.006Z,18.95
2023-05-14T05:46:36.591Z,18.90
2023-05-14T05:49:03.123Z,20.05
2023-05-14T05:51:30.216Z,21.15
2023-05-14T05:53:56.753Z,22.20
2023-05-14T05:56:23.408Z,23.02
2023-05-14T05:58:49.900Z,24.02
2023-05-14T06:01:16.439Z,20.88
2023-05-14T06:03:42.922Z,20.30
2023-05-14T06:06:09.511Z,21.27
2023-05-14T06:08:36.190Z,20.45
2023-05-14T06:11:02.723Z,19.08
2023-05-14T06:13:29.164Z,21.05
2023-05-14T06:15:55.705Z,20.25
2023-05-14T06:18:22.182Z,21.02
2023-05-14T06:20:48.745Z,17.23
2023-05-14T06:23:15.224Z,18.20
2023-05-14T06:25:41.750Z,17.55
2023-05-14T06:28:08.271Z,14.65
2023-05-14T06:30:34.928Z,14.57
2023-05-14T06:33:01.535Z,16.02
2023-05-14T06:35:28.081Z,18.25
2023-05-14T06:37:54.554Z,19.50
2023-05-14T06:40:21.387Z,19.15
2023-05-14T06:42:47.883Z,18.13
2023-05-14T06:45:14.450Z,15.68
2023-05-14T06:47:41.420Z,19.35
2023-05-14T06:50:10.660Z,16.05
2023-05-14T06:52:37.535Z,17.92
2023-05-14T06:55:04.317Z,16.02
2023-05-14T06:57:30.792Z,17.02
2023-05-14T06:59:57.537Z,16.20
2023-05-14T07:02:24.031Z,20.33
2023-05-14T07:04:50.586Z,18.88
2023-05-14T07:07:20.657Z,15.43
2023-05-14T07:09:47.721Z,13.70
2023-05-14T07:12:14.203Z,18.05
2023-05-14T07:14:41.808Z,17.48
2023-05-14T07:17:08.362Z,14.43
2023-05-14T07:19:34.917Z,15.82
2023-05-14T07:22:01.726Z,16.55
2023-05-14T07:24:28.259Z,16.30
2023-05-14T07:26:55.277Z,14.50
2023-05-14T07:29:21.845Z,16.20
2023-05-14T07:31:48.383Z,11.60
2023-05-14T07:34:15.164Z,12.82
2023-05-14T07:36:41.838Z,14.23
2023-05-14T07:39:08.839Z,11.55
2023-05-14T07:41:35.429Z,11.15
2023-05-14T07:44:02.049Z,13.15
2023-05-14T07:46:28.560Z,12.43
2023-05-14T07:48:55.173Z,13.18
2023-05-14T07:51:21.686Z,12.35
2023-05-14T07:53:48.242Z,13.18
2023-05-14T07:56:14.751Z,11.45
2023-05-14T07:58:41.473Z,12.27
2023-05-14T08:01:09.170Z,14.38
2023-05-14T08:03:35.972Z,11.05
2023-05-14T08:06:02.563Z,12.95
2023-05-14T08:08:29.125Z,16.23
2023-05-14T08:10:55.819Z,12.80
2023-05-14T08:13:22.384Z,12.18
2023-05-14T08:15:48.872Z,12.75
2023-05-14T08:18:15.478Z,12.25
2023-05-14T08:20:42.301Z,14.55
2023-05-14T08:23:09.361Z,11.50
2023-05-14T08:25:35.852Z,12.80
2023-05-14T08:28:02.449Z,15.40
2023-05-14T08:30:29.192Z,12.88
2023-05-14T08:32:55.927Z,14.13
2023-05-14T08:35:22.437Z,12.48
2023-05-14T08:37:50.217Z,11.98
2023-05-14T08:40:16.692Z,13.80
2023-05-14T08:42:45.099Z,12.07
2023-05-14T08:45:16.507Z,12.30
2023-05-14T08:47:44.420Z,12.48
2023-05-14T08:50:11.283Z,15.10
2023-05-14T08:52:37.979Z,12.95
2023-05-14T08:55:05.530Z,11.63
2023-05-14T08:57:32.863Z,12.98
2023-05-14T08:59:59.550Z,11.73
2023-05-14T09:02:30.034Z,10.02
2023-05-14T09:04:57.943Z,12.30
2023-05-14T09:07:24.633Z,11.63
2023-05-14T09:09:52.051Z,10.88
2023-05-14T09:12:18.971Z,10.68
2023-05-14T09:14:46.209Z,12.73
2023-05-14T09:17:12.755Z,12.18
2023-05-14T09:19:40.481Z,11.75
2023-05-14T09:22:11.428Z,10.85
2023-05-14T09:24:38.941Z,14.32
2023-05-14T09:27:06.333Z,11.65
2023-05-14T09:29:32.998Z,9.23
2023-05-14T09:32:00.475Z,9.35
2023-05-14T09:34:28.182Z,11.65
2023-05-14T09:36:56.356Z,11.13
2023-05-14T09:39:23.853Z,12.23
2023-05-14T09:41:51.816Z,8.85
2023-05-14T09:44:18.806Z,10.20
2023-05-14T09:46:45.773Z,10.10
2023-05-14T09:49:12.394Z,12.93
2023-05-14T09:51:39.091Z,8.75
2023-05-14T09:54:06.191Z,12.10
2023-05-14T09:56:33.227Z,9.93
2023-05-14T09:58:59.854Z,12.10
2023-05-14T10:01:28.379Z,10.32
2023-05-14T10:03:55.341Z,12.02
2023-05-14T10:06:30.344Z,13.82
2023-05-14T10:08:58.524Z,8.82
2023-05-14T10:11:26.302Z,9.05
2023-05-14T10:13:59.879Z,10.85
2023-05-14T10:16:35.331Z,14.98
2023-05-14T10:19:06.112Z,11.82
2023-05-14T10:21:34.882Z,10.45
2023-05-14T10:24:01.768Z,10.38
2023-05-14T10:26:28.514Z,12.15
2023-05-14T10:28:56.043Z,13.75
2023-05-14T10:31:41.106Z,12.00
2023-05-14T10:34:27.637Z,8.98
2023-05-14T10:36:54.135Z,12.52
2023-05-14T10:39:20.639Z,11.32
2023-05-14T10:41:47.635Z,12.07
2023-05-14T10:44:14.266Z,12.60
2023-05-14T10:46:40.832Z,12.02
2023-05-14T10:49:07.411Z,10.27
2023-05-14T10:51:34.063Z,11.73
2023-05-14T10:54:01.574Z,11.82
2023-05-14T10:56:28.690Z,11.77
2023-05-14T10:58:58.277Z,14.18
2023-05-14T11:01:24.894Z,11.60
2023-05-14T11:03:53.058Z,12.00
2023-05-14T11:06:20.805Z,12.52
2023-05-14T11:08:47.709Z,10.35
2023-05-14T11:11:14.259Z,11.65
2023-05-14T11:13:41.350Z,10.40
2023-05-14T11:16:21.737Z,13.68
2023-05-14T11:18:53.019Z,14.55
2023-05-14T11:21:19.549Z,12.65
2023-05-14T11:23:48.883Z,12.40
2023-05-14T11:26:15.502Z,12.00
2023-05-14T11:28:42.113Z,12.80
2023-05-14T11:31:09.803Z,11.07
2023-05-14T11:33:36.223Z,12.43
2023-05-14T11:36:02.751Z,14.60
2023-05-14T11:38:29.214Z,12.00
2023-05-14T11:40:56.399Z,12.35
2023-05-14T11:43:26.322Z,11.13
2023-05-14T11:45:53.570Z,11.25
2023-05-14T11:48:20.875Z,11.32
2023-05-14T11:50:47.907Z,10.88
2023-05-14T11:53:20.823Z,15.23
2023-05-14T11:55:47.649Z,11.60
2023-05-14T11:58:14.198Z,13.25
2023-05-14T12:00:40.855Z,12.93
2023-05-14T12:03:10.199Z,10.60
2023-05-14T12:05:37.952Z,12.25
2023-05-14T12:08:19.379Z,12.10
2023-05-14T12:10:45.943Z,13.32
2023-05-14T12:13:14.930Z,11.85
2023-05-14T12:15:44.318Z,12.23
2023-05-14T12:18:22.920Z,11.85
2023-05-14T12:20:54.093Z,12.40
2023-05-14T12:23:27.805Z,9.07
2023-05-14T12:25:54.422Z,10.25
2023-05-14T12:28:23.100Z,10.27
2023-05-14T12:30:55.931Z,14.73
2023-05-14T12:33:23.792Z,9.95
2023-05-14T12:35:50.273Z,8.95
2023-05-14T12:38:16.836Z,12.23
2023-05-14T12:40:43.304Z,10.00
2023-05-14T12:43:09.868Z,10.95
2023-05-14T12:45:36.538Z,11.82
2023-05-14T12:48:03.204Z,12.23
2023-05-14T12:50:29.786Z,12.80
2023-05-14T12:52:56.505Z,13.75
2023-05-14T12:55:23.046Z,12.88
2023-05-14T12:57:49.652Z,11.60
2023-05-14T13:00:16.302Z,11.40
2023-05-14T13:02:43.905Z,10.55
2023-05-14T13:05:11.420Z,10.90
2023-05-14T13:07:38.289Z,9.25
2023-05-14T13:10:05.960Z,12.02
2023-05-14T13:12:32.790Z,7.88
2023-05-14T13:14:59.348Z,11.73
2023-05-14T13:17:26.015Z,12.35
2023-05-14T13:19:52.541Z,12.30
2023-05-14T13:22:19.024Z,9.45
2023-05-14T13:24:45.733Z,9.10
2023-05-14T13:27:12.280Z,7.80
2023-05-14T13:29:38.754Z,8.55
2023-05-14T13:32:05.396Z,9.40
2023-05-14T13:34:31.881Z,7.80
2023-05-14T13:36:58.406Z,9.35
2023-05-14T13:39:27.294Z,9.35
2023-05-14T13:41:56.593Z,11.32
2023-05-14T13:44:23.091Z,8.90
2023-05-14T13:46:49.766Z,8.98
2023-05-14T13:49:16.372Z,9.00
2023-05-14T13:51:42.987Z,7.57
2023-05-14T13:54:09.524Z,8.10
2023-05-14T13:56:36.075Z,8.73
2023-05-14T13:59:03.522Z,9.25
2023-05-14T14:01:32.905Z,12.38
2023-05-14T14:03:59.512Z,9.63
2023-05-14T14:06:27.364Z,8.90
2023-05-14T14:08:53.976Z,11.35
2023-05-14T14:11:20.711Z,9.30
2023-05-14T14:13:47.174Z,10.85
2023-05-14T14:16:13.810Z,9.43
2023-05-14T14:18:40.370Z,9.20
2023-05-14T14:21:06.949Z,10.57
2023-05-14T14:23:33.506Z,9.88
2023-05-14T14:26:00.281Z,10.25
2023-05-14T14:28:26.730Z,8.10
2023-05-14T14:30:53.341Z,8.98
2023-05-14T14:33:19.884Z,12.68
2023-05-14T14:35:46.576Z,11.40
2023-05-14T14:38:14.059Z,8.73
2023-05-14T14:40:41.025Z,9.43
2023-05-14T14:43:07.637Z,10.70
2023-05-14T14:45:34.318Z,11.25
2023-05-14T14:48:19.531Z,9.32
2023-05-14T14:50:46.286Z,8.32
2023-05-14T14:53:12.759Z,9.25
2023-05-14T14:55:39.338Z,8.70
2023-05-14T14:58:05.864Z,9.25
2023-05-14T15:00:32.504Z,12.10
2023-05-14T15:02:59.044Z,13.13
2023-05-14T15:05:26.008Z,10.15
2023-05-14T15:07:52.724Z,9.75
2023-05-14T15:10:19.348Z,9.63
2023-05-14T15:12:46.071Z,11.05
2023-05-14T15:15:12.634Z,9.02
2023-05-14T15:17:39.225Z,10.68
2023-05-14T15:20:07.476Z,8.30
2023-05-14T15:22:33.967Z,9.10
2023-05-14T15:25:00.576Z,10.82
2023-05-14T15:27:27.135Z,8.95
2023-05-14T15:29:53.689Z,10.00
2023-05-14T15:32:20.772Z,8.90
2023-05-14T15:34:47.286Z,9.40
2023-05-14T15:37:13.834Z,8.93
2023-05-14T15:39:40.319Z,8.80
2023-05-14T15:42:06.830Z,9.88
2023-05-14T15:44:33.422Z,11.50
2023-05-14T15:46:59.862Z,9.23
2023-05-14T15:49:26.413Z,10.95
2023-05-14T15:51:52.949Z,7.95
2023-05-14T15:54:19.477Z,14.48
2023-05-14T15:56:46.650Z,12.52
2023-05-14T15:59:14.554Z,11.48
2023-05-14T16:01:41.135Z,11.55
2023-05-14T16:04:07.848Z,11.60
2023-05-14T16:06:34.666Z,8.80
2023-05-14T16:09:02.918Z,13.68
2023-05-14T16:11:30.122Z,8.77
2023-05-14T16:13:56.720Z,7.78
2023-05-14T16:16:23.668Z,12.50
2023-05-14T16:18:50.446Z,9.45
2023-05-14T16:21:16.948Z,8.65
2023-05-14T16:23:43.724Z,8.27
2023-05-14T16:26:11.043Z,8.98
2023-05-14T16:28:41.378Z,10.98
2023-05-14T16:31:08.014Z,9.63
2023-05-14T16:33:34.472Z,10.35
2023-05-14T16:36:00.975Z,10.07
2023-05-14T16:38:27.428Z,8.45
2023-05-14T16:40:54.128Z,9.50
2023-05-14T16:43:20.635Z,9.75
2023-05-14T16:45:47.236Z,11.68
2023-05-14T16:48:13.769Z,10.68
2023-05-14T16:50:40.339Z,8.70
2023-05-14T16:53:06.778Z,7.72
2023-05-14T16:55:33.284Z,8.85
2023-05-14T16:57:59.759Z,9.35
2023-05-14T17:00:26.532Z,7.70
2023-05-14T17:02:54.357Z,8.02
2023-05-14T17:05:21.399Z,9.15
2023-05-14T17:07:48.056Z,13.50
2023-05-14T17:10:14.614Z,11.80
2023-05-14T17:12:41.086Z,10.80
2023-05-14T17:15:07.968Z,10.80
2023-05-14T17:17:34.604Z,12.73
2023-05-14T17:20:01.209Z,11.10
2023-05-14T17:22:27.699Z,12.05
2023-05-14T17:24:54.344Z,10.60
2023-05-14T17:27:20.841Z,13.27
2023-05-14T17:29:49.346Z,11.48
2023-05-14T17:32:17.015Z,11.02
2023-05-14T17:34:43.612Z,10.27
2023-05-14T17:37:10.101Z,11.38
2023-05-14T17:39:36.687Z,12.07
2023-05-14T17:42:03.699Z,13.18
2023-05-14T17:44:30.368Z,12.45
2023-05-14T17:46:56.907Z,9.45
2023-05-14T17:49:23.441Z,10.80
2023-05-14T17:51:50.110Z,9.43
2023-05-14T17:54:16.712Z,8.45
2023-05-14T17:56:43.229Z,8.40
2023-05-14T17:59:09.859Z,10.18
2023-05-14T18:01:36.464Z,10.45
2023-05-14T18:04:03.132Z,8.73
2023-05-14T18:06:29.757Z,9.45
2023-05-14T18:08:56.799Z,8.68
2023-05-14T18:11:23.367Z,11.68
2023-05-14T18:13:50.041Z,12.13
2023-05-14T18:16:16.593Z,8.98
2023-05-14T18:18:43.164Z,10.13
2023-05-14T18:21:09.612Z,9.20
2023-05-14T18:23:36.246Z,9.60
2023-05-14T18:26:02.696Z,8.68
2023-05-14T18:28:29.336Z,11.20
2023-05-14T18:30:55.952Z,9.52
2023-05-14T18:33:22.517Z,8.35
2023-05-14T18:35:49.016Z,10.40
2023-05-14T18:38:17.824Z,10.60
2023-05-14T18:40:44.424Z,12.27
2023-05-14T18:43:13.373Z,12.82
2023-05-14T18:45:40.374Z,12.52
2023-05-14T18:48:07.033Z,12.15
2023-05-14T18:50:33.536Z,11.40
2023-05-14T18:53:00.069Z,13.30
2023-05-14T18:55:26.921Z,15.80
2023-05-14T18:57:53.764Z,17.80
2023-05-14T19:00:20.459Z,14.15
2023-05-14T19:02:47.233Z,10.50
2023-05-14T19:05:13.800Z,13.23
2023-05-14T19:07:41.036Z,10.27
2023-05-14T19:10:07.924Z,18.55
2023-05-14T19:12:34.505Z,15.98
2023-05-14T19:15:01.067Z,12.65
2023-05-14T19:17:29.068Z,13.18
2023-05-14T19:19:55.890Z,13.60
2023-05-14T19:22:22.615Z,15.43
2023-05-14T19:27:17.414Z,11.98
2023-05-14T19:29:44.327Z,15.68
2023-05-14T19:32:10.927Z,14.85
2023-05-14T19:34:37.529Z,14.10
2023-05-14T19:37:04.825Z,16.20
2023-05-14T19:39:31.485Z,18.77
2023-05-14T19:41:58.110Z,14.00
2023-05-14T19:44:24.586Z,14.60
2023-05-14T19:46:51.313Z,13.48
2023-05-14T19:49:17.789Z,14.27
2023-05-14T19:51:44.398Z,11.13
2023-05-14T19:54:10.908Z,12.35
2023-05-14T19:56:38.350Z,16.55
2023-05-14T19:59:05.088Z,14.02
2023-05-14T20:01:32.431Z,13.68
2023-05-14T20:03:58.995Z,15.07
2023-05-14T20:06:25.800Z,15.20
2023-05-14T20:08:52.661Z,16.05
2023-05-14T20:11:19.770Z,14.13
2023-05-14T20:13:46.320Z,17.92
2023-05-14T20:16:17.034Z,14.75
2023-05-14T20:18:46.502Z,20.45
2023-05-14T20:21:13.141Z,17.45
2023-05-14T20:23:39.713Z,14.52
2023-05-14T20:26:06.224Z,15.02
2023-05-14T20:28:32.807Z,16.55
2023-05-14T20:31:00.314Z,16.98
2023-05-14T20:33:29.023Z,14.98
2023-05-14T20:35:55.841Z,16.55
2023-05-14T20:38:22.689Z,14.38
2023-05-14T20:40:49.274Z,15.02
2023-05-14T20:43:16.247Z,13.40
2023-05-14T20:45:42.789Z,14.50
2023-05-14T20:48:11.464Z,17.20
2023-05-14T20:50:38.098Z,14.77
2023-05-14T20:53:04.643Z,13.80
2023-05-14T20:55:31.230Z,14.48
2023-05-14T20:57:57.815Z,14.82
2023-05-14T21:00:24.343Z,13.70
2023-05-14T21:02:50.895Z,13.15
2023-05-14T21:05:17.598Z,13.73
2023-05-14T21:07:44.405Z,13.95
2023-05-14T21:10:11.041Z,11.95
2023-05-14T21:12:37.657Z,11.77
2023-05-14T21:15:04.525Z,12.15
2023-05-14T21:17:31.374Z,14.32
2023-05-14T21:19:57.990Z,13.43
2023-05-14T21:22:24.832Z,14.00
2023-05-14T21:24:51.437Z,16.85
2023-05-14T21:27:18.273Z,12.75
2023-05-14T21:29:47.776Z,14.20
2023-05-14T21:32:14.374Z,13.27
2023-05-14T21:34:40.902Z,12.82
2023-05-14T21:37:07.515Z,12.32
2023-05-14T21:39:34.115Z,13.10
2023-05-14T21:42:00.628Z,15.27
2023-05-14T21:44:27.060Z,14.13
2023-05-14T21:46:53.645Z,15.25
2023-05-14T21:49:20.262Z,14.73
2023-05-14T21:51:46.867Z,16.60
2023-05-14T21:54:14.086Z,16.83
2023-05-14T21:56:40.756Z,16.10
2023-05-14T21:59:07.197Z,15.10
2023-05-14T22:01:38.594Z,15.52
2023-05-14T22:04:12.855Z,18.77
2023-05-14T22:06:39.506Z,15.43
2023-05-14T22:09:06.079Z,11.95
2023-05-14T22:11:32.550Z,14.27
2023-05-14T22:13:59.117Z,14.00
2023-05-14T22:16:26.825Z,12.07
2023-05-14T22:18:54.045Z,11.48
2023-05-14T22:21:20.587Z,12.88
2023-05-14T22:23:47.945Z,10.20
2023-05-14T22:26:14.551Z,10.73
2023-05-14T22:28:43.015Z,9.85
2023-05-14T22:31:10.235Z,13.68
2023-05-14T22:33:36.770Z,14.27
2023-05-14T22:36:03.356Z,11.32
2023-05-14T22:38:30.051Z,14.18
2023-05-14T22:40:56.569Z,11.05
2023-05-14T22:43:23.100Z,13.00
2023-05-14T22:45:49.622Z,12.50
2023-05-14T22:48:16.358Z,12.45
2023-05-14T22:50:42.864Z,11.52
2023-05-14T22:53:09.452Z,10.75
2023-05-14T22:55:36.237Z,10.18
2023-05-14T22:58:02.786Z,11.68
2023-05-14T23:00:29.284Z,9.65
2023-05-14T23:02:56.370Z,10.15
2023-05-14T23:05:23.066Z,13.07
2023-05-14T23:07:49.836Z,11.95
2023-05-14T23:10:16.389Z,11.85
2023-05-14T23:12:42.890Z,10.68
2023-05-14T23:15:09.516Z,10.05
2023-05-14T23:17:36.266Z,8.65
2023-05-14T23:20:04.809Z,11.95
2023-05-14T23:22:31.480Z,11.52
2023-05-14T23:24:58.073Z,11.73
2023-05-14T23:27:49.610Z,10.60
2023-05-14T23:30:14.569Z,12.10
2023-05-14T23:32:41.063Z,10.00
2023-05-14T23:35:07.879Z,10.38
2023-05-14T23:37:35.788Z,11.23
2023-05-14T23:40:02.377Z,12.57
2023-05-14T23:42:28.913Z,13.27
2023-05-14T23:44:55.552Z,11.00
2023-05-14T23:47:22.057Z,12.57
2023-05-14T23:49:48.720Z,11.05
2023-05-14T23:52:15.391Z,11.65
2023-05-14T23:54:41.924Z,11.73
2023-05-14T23:57:08.445Z,12.00
2023-05-14T23:59:34.985Z,11.57
